Time;durP1;ratioP1;P1;durP2;ratioP2;P2;SDS_P1;SDS_P2;PMS_P1;PMS_P2;Temp;Humidity;BMP_temperature;BMP_pressure;BME280_temperature;BME280_humidity;BME280_pressure;Samples;Min_cycle;Max_cycle;Signal;HPM_P1;HPM_P2
2022/07/21 00:01:46;;;;;;;11.52;5.75;;;25.10;71.50;;;;;;4893234;29;20175;-74
2022/07/21 00:04:15;;;;;;;8.32;4.93;;;25.00;71.90;;;;;;4893958;29;20055;-73
2022/07/21 00:06:42;;;;;;;;;;;24.90;72.10;;;;;;4895141;29;20052;-71
2022/07/21 00:09:10;;;;;;;9.45;4.75;;;24.90;72.20;;;;;;4900373;29;19970;-71
2022/07/21 00:11:37;;;;;;;11.13;5.32;;;24.80;73.00;;;;;;4884839;29;20052;-73
2022/07/21 00:14:04;;;;;;;8.18;4.30;;;24.70;73.30;;;;;;4883582;29;20049;-72
2022/07/21 00:16:31;;;;;;;8.70;5.07;;;24.70;73.40;;;;;;4887973;29;20167;-73
2022/07/21 00:18:59;;;;;;;9.95;5.60;;;24.80;73.20;;;;;;4890808;29;20126;-74
2022/07/21 00:21:27;;;;;;;9.65;5.50;;;24.70;73.00;;;;;;4885430;29;20099;-73
2022/07/21 00:23:54;;;;;;;10.35;5.75;;;24.80;72.70;;;;;;4880005;29;20052;-73
2022/07/21 00:26:21;;;;;;;8.75;5.40;;;24.70;73.00;;;;;;4890495;29;20384;-70
2022/07/21 00:28:48;;;;;;;11.13;6.20;;;24.70;72.80;;;;;;4890437;29;20482;-72
2022/07/21 00:31:15;;;;;;;14.70;5.63;;;24.60;73.00;;;;;;4892878;29;22216;-70
2022/07/21 00:33:42;;;;;;;10.23;5.53;;;24.70;72.70;;;;;;4901595;29;20045;-72
2022/07/21 00:36:09;;;;;;;9.10;4.72;;;24.70;72.60;;;;;;4890072;29;20100;-74
2022/07/21 00:38:38;;;;;;;10.13;5.53;;;24.60;72.90;;;;;;4886476;29;20048;-72
2022/07/21 00:41:05;;;;;;;9.50;4.85;;;24.60;73.30;;;;;;4893106;29;20502;-72
2022/07/21 00:43:32;;;;;;;8.73;5.63;;;24.60;72.90;;;;;;4905237;29;20063;-73
2022/07/21 00:45:59;;;;;;;9.75;5.30;;;24.70;72.80;;;;;;4891041;29;20090;-72
2022/07/21 00:48:25;;;;;;;8.98;5.53;;;24.60;73.20;;;;;;4897010;29;20401;-74
2022/07/21 00:50:53;;;;;;;10.40;5.78;;;24.60;74.00;;;;;;4882043;29;20151;-74
2022/07/21 00:53:20;;;;;;;8.93;5.18;;;24.50;74.30;;;;;;4887621;29;20060;-71
2022/07/21 00:55:48;;;;;;;8.95;5.43;;;24.60;74.20;;;;;;4890865;29;20514;-70
2022/07/21 00:58:15;;;;;;;11.45;6.40;;;24.50;74.50;;;;;;4899052;29;20411;-75
2022/07/21 01:00:42;;;;;;;10.18;5.40;;;24.30;75.00;;;;;;4891420;29;20197;-73
2022/07/21 01:03:10;;;;;;;11.98;5.80;;;24.20;75.60;;;;;;4892808;29;20124;-74
2022/07/21 01:05:39;;;;;;;10.45;5.90;;;24.20;75.10;;;;;;4902748;29;20055;-72
2022/07/21 01:08:07;;;;;;;9.90;5.28;;;24.20;75.40;;;;;;4900762;29;20049;-72
2022/07/21 01:10:34;;;;;;;8.77;5.82;;;24.20;75.60;;;;;;4893924;29;20056;-72
2022/07/21 01:13:02;;;;;;;11.55;5.80;;;24.10;75.70;;;;;;4889968;29;20048;-74
2022/07/21 01:15:29;;;;;;;10.60;5.88;;;24.10;75.50;;;;;;4886304;29;20059;-73
2022/07/21 01:17:57;;;;;;;8.35;5.40;;;24.10;75.70;;;;;;4900764;29;20060;-75
2022/07/21 01:20:25;;;;;;;8.23;4.95;;;24.10;75.70;;;;;;4893622;29;20048;-74
2022/07/21 01:22:56;;;;;;;9.82;5.47;;;24.10;75.70;;;;;;4899143;29;20056;-74
2022/07/21 01:25:23;;;;;;;10.77;5.57;;;24.10;75.50;;;;;;4884688;29;20041;-73
2022/07/21 01:27:50;;;;;;;10.40;5.35;;;24.10;75.70;;;;;;4890628;29;20064;-72
2022/07/21 01:30:18;;;;;;;12.82;5.50;;;24.10;75.20;;;;;;4888535;29;20056;-74
2022/07/21 01:32:45;;;;;;;11.90;6.00;;;24.10;75.20;;;;;;4894399;29;20056;-73
2022/07/21 01:35:15;;;;;;;8.27;5.47;;;24.10;75.20;;;;;;4884651;29;20041;-73
2022/07/21 01:37:44;;;;;;;10.77;5.43;;;24.10;75.10;;;;;;4889031;29;20131;-72
2022/07/21 01:42:54;;;;;;;11.82;5.93;;;24.10;75.80;;;;;;4862814;29;20049;-73
2022/07/21 01:45:23;;;;;;;11.18;6.53;;;24.10;75.70;;;;;;4886286;29;20156;-73
2022/07/21 01:47:49;;;;;;;9.07;5.25;;;24.10;75.70;;;;;;4889239;29;20084;-74
2022/07/21 01:50:18;;;;;;;10.27;5.80;;;24.10;75.90;;;;;;4880327;29;20041;-73
2022/07/21 01:52:46;;;;;;;9.63;5.68;;;24.00;76.10;;;;;;4882261;29;20040;-73
2022/07/21 01:55:14;;;;;;;7.70;5.22;;;24.00;76.00;;;;;;4884948;29;20056;-74
2022/07/21 01:57:41;;;;;;;12.50;6.50;;;24.00;76.10;;;;;;4886499;29;20045;-74
2022/07/21 02:00:10;;;;;;;9.30;5.07;;;24.00;76.20;;;;;;4883005;29;20040;-72
2022/07/21 02:02:37;;;;;;;10.25;5.75;;;24.00;75.90;;;;;;4889219;29;20192;-70
2022/07/21 02:05:04;;;;;;;13.02;5.53;;;24.00;75.90;;;;;;4880105;29;20491;-73
2022/07/21 02:07:31;;;;;;;11.10;5.65;;;23.90;76.30;;;;;;4885783;29;20037;-73
2022/07/21 02:09:58;;;;;;;9.05;6.03;;;23.90;76.20;;;;;;4886598;29;20056;-74
2022/07/21 02:12:26;;;;;;;8.55;5.63;;;23.90;76.20;;;;;;4881556;29;20077;-74
2022/07/21 02:14:53;;;;;;;9.65;6.00;;;24.00;76.00;;;;;;4887252;29;20045;-75
2022/07/21 02:17:20;;;;;;;15.27;6.03;;;24.00;76.10;;;;;;4881268;29;20048;-71
2022/07/21 02:19:47;;;;;;;11.30;6.25;;;23.90;76.30;;;;;;4893429;29;20490;-74
2022/07/21 02:22:14;;;;;;;9.50;5.93;;;23.90;76.40;;;;;;4879848;29;20049;-74
2022/07/21 02:24:41;;;;;;;9.63;5.63;;;23.90;76.40;;;;;;4879563;29;20052;-74
2022/07/21 02:27:08;;;;;;;9.05;5.55;;;23.90;76.60;;;;;;4876488;29;20941;-73
2022/07/21 02:29:36;;;;;;;10.32;6.35;;;23.90;76.30;;;;;;4884882;29;20051;-74
2022/07/21 02:32:03;;;;;;;9.57;6.22;;;23.90;76.10;;;;;;4879875;29;20075;-74
2022/07/21 02:34:30;;;;;;;10.80;5.43;;;24.00;75.90;;;;;;4888630;29;20067;-74
2022/07/21 02:36:57;;;;;;;10.63;5.65;;;23.90;76.20;;;;;;4879432;29;20064;-74
2022/07/21 02:39:25;;;;;;;10.15;5.68;;;24.00;76.40;;;;;;4884382;29;20080;-75
2022/07/21 02:41:52;;;;;;;10.18;5.70;;;24.00;76.20;;;;;;4884090;29;20220;-76
2022/07/21 02:44:19;;;;;;;9.95;5.95;;;24.00;76.10;;;;;;4885668;29;20063;-76
2022/07/21 02:46:48;;;;;;;9.70;5.57;;;24.00;75.90;;;;;;4885122;29;20048;-76
2022/07/21 02:49:15;;;;;;;8.00;5.22;;;24.00;76.60;;;;;;4880039;29;21327;-77
2022/07/21 02:51:42;;;;;;;10.75;5.95;;;24.00;76.70;;;;;;4880809;29;20061;-74
2022/07/21 02:54:09;;;;;;;8.23;5.43;;;23.90;76.40;;;;;;4892379;29;20055;-74
2022/07/21 02:56:35;;;;;;;9.75;6.18;;;24.00;76.20;;;;;;4883224;29;20151;-76
2022/07/21 02:59:02;;;;;;;10.07;5.95;;;24.00;76.20;;;;;;4888358;29;20049;-75
2022/07/21 03:01:29;;;;;;;10.40;5.70;;;24.00;75.90;;;;;;4885938;29;20055;-76
2022/07/21 03:03:57;;;;;;;8.95;6.10;;;24.00;75.90;;;;;;4889563;29;20060;-75
2022/07/21 03:06:24;;;;;;;9.18;5.43;;;24.00;75.70;;;;;;4877137;29;20503;-75
2022/07/21 03:08:51;;;;;;;9.70;6.47;;;24.10;75.70;;;;;;4880316;29;20544;-77
2022/07/21 03:11:18;;;;;;;9.98;5.88;;;24.10;75.80;;;;;;4891961;29;20068;-76
2022/07/21 03:13:45;;;;;;;11.32;5.88;;;24.10;75.90;;;;;;4881271;29;20137;-75
2022/07/21 03:16:12;;;;;;;9.40;5.97;;;24.10;75.80;;;;;;4889702;29;20597;-73
2022/07/21 03:18:40;;;;;;;11.43;6.63;;;24.10;76.30;;;;;;4894358;29;20140;-74
2022/07/21 03:21:08;;;;;;;11.88;6.97;;;24.00;76.30;;;;;;4892264;29;20052;-75
2022/07/21 03:23:35;;;;;;;10.00;6.38;;;24.10;76.20;;;;;;4888864;29;20044;-74
2022/07/21 03:26:02;;;;;;;10.93;6.75;;;24.00;76.30;;;;;;4891969;29;20059;-76
2022/07/21 03:28:29;;;;;;;8.90;5.93;;;24.00;76.50;;;;;;4903555;29;20133;-74
2022/07/21 03:30:56;;;;;;;9.95;6.63;;;24.00;76.40;;;;;;4899102;29;20056;-77
2022/07/21 03:33:23;;;;;;;10.38;6.45;;;24.00;76.50;;;;;;4875678;29;20056;-73
2022/07/21 03:35:50;;;;;;;12.20;6.78;;;24.00;76.60;;;;;;4897838;29;20105;-74
2022/07/21 03:38:18;;;;;;;11.15;6.88;;;24.00;76.00;;;;;;4886632;29;20107;-74
2022/07/21 03:40:45;;;;;;;12.98;7.80;;;24.00;75.60;;;;;;4887456;29;20064;-77
2022/07/21 03:43:12;;;;;;;12.63;7.28;;;24.00;75.60;;;;;;4888129;29;22223;-74
2022/07/21 03:45:39;;;;;;;13.93;8.38;;;24.00;75.70;;;;;;4885955;29;20048;-76
2022/07/21 03:48:07;;;;;;;13.55;7.95;;;24.00;75.80;;;;;;4894520;29;20053;-75
2022/07/21 03:50:35;;;;;;;10.18;6.90;;;23.90;76.00;;;;;;4897543;29;20120;-78
2022/07/21 03:53:03;;;;;;;13.02;8.52;;;23.90;75.90;;;;;;4888605;29;20057;-76
2022/07/21 03:55:31;;;;;;;11.68;8.35;;;23.90;75.70;;;;;;4888421;29;20053;-76
2022/07/21 03:58:00;;;;;;;13.25;8.15;;;23.90;75.80;;;;;;4900901;29;20050;-75
2022/07/21 04:00:29;;;;;;;12.15;8.13;;;23.90;75.80;;;;;;4887368;29;20074;-78
2022/07/21 04:02:57;;;;;;;11.32;7.95;;;24.00;75.80;;;;;;4896275;29;20053;-78
2022/07/21 04:05:24;;;;;;;14.18;8.43;;;23.90;76.20;;;;;;4891975;29;20071;-77
2022/07/21 04:07:52;;;;;;;13.35;7.60;;;23.90;76.10;;;;;;4892731;29;20506;-77
2022/07/21 04:10:22;;;;;;;14.63;7.15;;;23.90;76.10;;;;;;4896388;29;20052;-78
2022/07/21 04:12:50;;;;;;;10.80;6.65;;;23.80;75.80;;;;;;4895644;29;20407;-78
2022/07/21 04:15:18;;;;;;;11.48;7.35;;;23.80;75.50;;;;;;4896959;29;20135;-77
2022/07/21 04:17:45;;;;;;;10.30;6.53;;;23.80;75.30;;;;;;4892548;29;20510;-77
2022/07/21 04:20:13;;;;;;;14.23;6.63;;;23.80;75.30;;;;;;4892090;29;20139;-79
2022/07/21 04:22:41;;;;;;;10.43;6.20;;;23.70;75.10;;;;;;4888568;29;20129;-75
2022/07/21 04:25:09;;;;;;;11.55;6.20;;;23.70;74.90;;;;;;4888488;29;20052;-76
2022/07/21 04:27:37;;;;;;;12.27;6.28;;;23.60;75.10;;;;;;4895872;29;20395;-78
2022/07/21 04:30:08;;;;;;;10.65;6.10;;;23.60;75.00;;;;;;4887670;29;20139;-75
2022/07/21 04:32:35;;;;;;;13.20;6.60;;;23.50;75.00;;;;;;4888867;29;20060;-78
2022/07/21 04:35:02;;;;;;;9.82;4.65;;;23.50;74.60;;;;;;4895529;29;20052;-75
2022/07/21 04:37:29;;;;;;;9.20;5.25;;;23.40;74.80;;;;;;4890536;29;20072;-75
2022/07/21 04:39:56;;;;;;;9.13;4.90;;;23.40;74.40;;;;;;4891031;29;20054;-76
2022/07/21 04:42:23;;;;;;;8.82;4.97;;;23.30;73.90;;;;;;4882389;29;20052;-75
2022/07/21 04:44:50;;;;;;;9.40;4.90;;;23.40;73.90;;;;;;4887135;29;20097;-76
2022/07/21 04:47:18;;;;;;;8.07;4.55;;;23.30;73.90;;;;;;4871705;29;20056;-76
2022/07/21 04:49:45;;;;;;;8.60;5.10;;;23.20;74.10;;;;;;4877381;29;20054;-72
2022/07/21 04:52:12;;;;;;;9.73;4.55;;;23.20;74.20;;;;;;4897739;29;20079;-75
2022/07/21 04:54:39;;;;;;;10.02;6.07;;;23.20;74.30;;;;;;4894387;29;20056;-74
2022/07/21 04:57:06;;;;;;;8.77;4.63;;;23.10;74.50;;;;;;4893992;29;20052;-73
2022/07/21 04:59:34;;;;;;;8.15;5.18;;;23.20;74.70;;;;;;4894354;29;20057;-72
2022/07/21 05:02:02;;;;;;;7.50;4.88;;;23.20;74.80;;;;;;4897781;29;20052;-75
2022/07/21 05:04:30;;;;;;;9.73;5.20;;;23.20;75.10;;;;;;4892946;29;20051;-74
2022/07/21 05:06:57;;;;;;;9.90;5.22;;;23.20;75.20;;;;;;4901203;29;20054;-76
2022/07/21 05:09:24;;;;;;;9.73;5.20;;;23.20;75.20;;;;;;4893447;29;20040;-74
2022/07/21 05:11:51;;;;;;;8.95;4.95;;;23.20;74.90;;;;;;4890017;29;20044;-72
2022/07/21 05:14:18;;;;;;;9.73;4.85;;;23.30;74.60;;;;;;4893910;29;20040;-73
2022/07/21 05:16:45;;;;;;;6.70;4.40;;;23.40;74.30;;;;;;4889464;29;20053;-75
2022/07/21 05:19:12;;;;;;;8.40;5.05;;;23.40;74.20;;;;;;4894074;29;20036;-74
2022/07/21 05:21:41;;;;;;;9.45;4.78;;;23.50;74.00;;;;;;4893509;29;20048;-75
2022/07/21 05:24:08;;;;;;;8.50;5.43;;;23.40;74.40;;;;;;4889737;29;20052;-76
2022/07/21 05:26:35;;;;;;;9.50;5.03;;;23.30;74.60;;;;;;4894754;29;20056;-75
2022/07/21 05:29:03;;;;;;;8.57;4.70;;;23.30;74.60;;;;;;4900854;29;20057;-75
2022/07/21 05:31:30;;;;;;;8.27;5.43;;;23.30;74.60;;;;;;4891116;29;20060;-75
2022/07/21 05:33:56;;;;;;;8.82;5.03;;;23.30;74.70;;;;;;4893363;29;20052;-76
2022/07/21 05:36:23;;;;;;;12.10;5.10;;;23.20;74.80;;;;;;4882221;29;20050;-80
2022/07/21 05:38:52;;;;;;;11.00;4.78;;;23.30;74.60;;;;;;4898341;29;20507;-76
2022/07/21 05:41:18;;;;;;;9.40;5.38;;;23.20;74.40;;;;;;4888193;29;20451;-75
2022/07/21 05:43:45;;;;;;;7.32;4.18;;;23.20;74.40;;;;;;4897298;29;20048;-75
2022/07/21 05:46:12;;;;;;;11.23;4.60;;;23.10;74.60;;;;;;4880129;29;20057;-76
2022/07/21 05:48:39;;;;;;;9.55;5.32;;;23.10;74.40;;;;;;4883942;29;20080;-77
2022/07/21 05:51:06;;;;;;;9.48;5.13;;;23.10;74.20;;;;;;4889700;29;20141;-75
2022/07/21 05:53:33;;;;;;;10.35;4.95;;;23.10;74.50;;;;;;4891780;29;20136;-76
2022/07/21 05:56:01;;;;;;;7.97;4.40;;;23.10;74.50;;;;;;4886362;29;20135;-74
2022/07/21 05:58:28;;;;;;;7.25;4.60;;;23.10;74.40;;;;;;4874895;29;20049;-74
2022/07/21 06:01:12;;;;;;;15.55;5.25;;;23.20;74.10;;;;;;4875651;29;20040;-77
2022/07/21 06:03:41;;;;;;;7.53;4.75;;;23.30;73.70;;;;;;4885742;29;20112;-77
2022/07/21 06:06:09;;;;;;;7.33;4.60;;;23.30;73.10;;;;;;4881279;29;20139;-76
2022/07/21 06:08:37;;;;;;;8.88;4.05;;;23.40;73.20;;;;;;4880278;29;20139;-77
2022/07/21 06:11:06;;;;;;;7.22;4.05;;;23.30;73.20;;;;;;4886204;29;20044;-77
2022/07/21 06:13:33;;;;;;;7.53;4.47;;;23.30;72.90;;;;;;4886499;29;20044;-78
2022/07/21 06:16:00;;;;;;;6.30;3.95;;;23.30;72.90;;;;;;4884625;29;20041;-78
2022/07/21 06:18:27;;;;;;;8.63;4.55;;;23.40;72.70;;;;;;4891322;29;20052;-77
2022/07/21 06:20:54;;;;;;;7.05;3.78;;;23.40;72.50;;;;;;4881112;29;20056;-78
2022/07/21 06:23:21;;;;;;;9.02;4.32;;;23.40;72.90;;;;;;4881180;29;20045;-77
2022/07/21 06:25:48;;;;;;;9.95;4.57;;;23.40;72.40;;;;;;4873838;29;21054;-76
2022/07/21 06:28:17;;;;;;;6.75;3.78;;;23.40;72.30;;;;;;4884064;29;20514;-76
2022/07/21 06:30:44;;;;;;;6.65;3.95;;;23.30;72.20;;;;;;4886038;29;20203;-76
2022/07/21 06:33:11;;;;;;;6.80;4.07;;;23.40;71.90;;;;;;4886706;29;20050;-77
2022/07/21 06:35:38;;;;;;;5.80;3.42;;;23.30;72.20;;;;;;4870054;29;20068;-74
2022/07/21 06:38:05;;;;;;;6.93;3.90;;;23.30;72.40;;;;;;4890716;29;20048;-76
2022/07/21 06:40:32;;;;;;;6.13;4.05;;;23.30;72.50;;;;;;4888210;29;20052;-73
2022/07/21 06:42:59;;;;;;;6.93;3.67;;;23.30;72.10;;;;;;4878193;29;20060;-74
2022/07/21 06:45:28;;;;;;;6.30;3.88;;;23.40;71.80;;;;;;4881649;29;20045;-77
2022/07/21 06:48:01;;;;;;;9.82;4.22;;;23.50;71.60;;;;;;4879783;29;20052;-74
2022/07/21 06:50:29;;;;;;;7.25;4.05;;;23.50;71.50;;;;;;4882203;29;20072;-77
2022/07/21 06:52:56;;;;;;;6.28;4.20;;;23.70;71.10;;;;;;4877898;29;20308;-76
2022/07/21 06:55:23;;;;;;;6.88;3.63;;;23.80;70.70;;;;;;4878430;29;20266;-79
2022/07/21 06:57:50;;;;;;;7.03;3.97;;;23.90;70.50;;;;;;4879592;29;20052;-77
2022/07/21 07:00:18;;;;;;;5.63;3.53;;;24.10;70.40;;;;;;4878504;29;20587;-73
2022/07/21 07:02:46;;;;;;;5.88;3.67;;;24.30;70.20;;;;;;4883906;29;20049;-74
2022/07/21 07:05:13;;;;;;;8.57;3.58;;;24.30;69.30;;;;;;4880789;29;20053;-76
2022/07/21 07:07:40;;;;;;;7.28;3.88;;;24.30;69.20;;;;;;4885903;29;20052;-78
2022/07/21 07:10:08;;;;;;;6.75;4.05;;;24.30;68.50;;;;;;4888600;29;20451;-78
2022/07/21 07:12:36;;;;;;;6.32;3.80;;;24.30;68.90;;;;;;4884225;29;20056;-77
2022/07/21 07:15:03;;;;;;;6.93;4.07;;;24.30;68.10;;;;;;4902876;29;20072;-77
2022/07/21 07:17:30;;;;;;;6.97;3.33;;;24.40;68.20;;;;;;4892664;29;20047;-78
2022/07/21 07:19:58;;;;;;;7.13;4.13;;;24.40;68.20;;;;;;4886208;29;20052;-78
2022/07/21 07:22:26;;;;;;;5.82;3.55;;;24.40;67.90;;;;;;4891034;29;20056;-78
2022/07/21 07:24:53;;;;;;;6.13;3.47;;;24.50;68.00;;;;;;4888580;29;20562;-77
2022/07/21 07:27:20;;;;;;;6.78;3.85;;;24.50;67.70;;;;;;4891869;29;20467;-78
2022/07/21 07:29:47;;;;;;;7.88;3.42;;;24.50;67.70;;;;;;4891399;29;20570;-77
2022/07/21 07:32:14;;;;;;;9.48;4.22;;;24.50;68.00;;;;;;4891519;29;20514;-78
2022/07/21 07:34:41;;;;;;;5.43;3.60;;;24.50;67.40;;;;;;4888996;29;20151;-76
2022/07/21 07:37:09;;;;;;;7.25;3.75;;;24.50;67.50;;;;;;4886659;29;20059;-77
2022/07/21 07:39:37;;;;;;;6.97;3.83;;;24.70;67.50;;;;;;4891906;29;20131;-76
2022/07/21 07:42:05;;;;;;;6.90;3.97;;;24.70;67.50;;;;;;4885973;29;20049;-77
2022/07/21 07:44:32;;;;;;;5.97;4.10;;;24.70;67.70;;;;;;4872085;29;20048;-76
2022/07/21 07:47:01;;;;;;;5.57;3.60;;;24.80;67.60;;;;;;4879565;29;20116;-77
2022/07/21 07:49:29;;;;;;;8.35;3.97;;;24.70;66.60;;;;;;4885993;29;20064;-75
2022/07/21 07:51:56;;;;;;;6.07;4.03;;;24.70;66.40;;;;;;4885585;29;20138;-75
2022/07/21 07:54:24;;;;;;;8.73;4.72;;;24.70;66.30;;;;;;4882608;29;20053;-77
2022/07/21 07:56:51;;;;;;;5.77;3.83;;;24.60;66.50;;;;;;4884838;29;20418;-76
2022/07/21 07:59:18;;;;;;;7.78;4.10;;;24.60;66.70;;;;;;4880503;29;20100;-78
2022/07/21 08:01:45;;;;;;;8.15;4.15;;;24.60;66.70;;;;;;4883875;29;20051;-74
2022/07/21 08:04:14;;;;;;;7.30;3.63;;;24.60;66.80;;;;;;4885178;29;20059;-76
2022/07/21 08:06:41;;;;;;;6.97;3.77;;;24.70;66.70;;;;;;4887078;29;20140;-75
2022/07/21 08:09:08;;;;;;;8.05;3.83;;;24.80;66.40;;;;;;4882228;29;20133;-76
2022/07/21 08:11:36;;;;;;;5.78;3.30;;;24.90;65.80;;;;;;4877847;29;20048;-75
2022/07/21 08:14:03;;;;;;;7.38;4.05;;;24.80;65.60;;;;;;4877557;29;20056;-74
2022/07/21 08:16:30;;;;;;;10.45;4.03;;;24.90;65.50;;;;;;4883006;29;20044;-75
2022/07/21 08:18:57;;;;;;;7.55;3.75;;;25.00;65.00;;;;;;4873785;29;20064;-74
2022/07/21 08:21:30;;;;;;;6.38;3.70;;;25.00;65.20;;;;;;4882616;29;20524;-76
2022/07/21 08:23:58;;;;;;;8.75;3.47;;;25.10;64.80;;;;;;4886024;29;20059;-75
2022/07/21 08:26:25;;;;;;;6.60;3.42;;;25.10;64.30;;;;;;4883936;29;20065;-76
2022/07/21 08:28:54;;;;;;;6.25;3.42;;;25.10;63.50;;;;;;4878047;29;20060;-75
2022/07/21 08:31:21;;;;;;;7.10;3.00;;;25.10;63.40;;;;;;4879793;29;20037;-76
2022/07/21 08:33:47;;;;;;;5.97;3.72;;;25.10;63.60;;;;;;4890778;29;20072;-74
2022/07/21 08:36:14;;;;;;;6.15;3.22;;;25.20;63.80;;;;;;4878344;29;20049;-73
2022/07/21 08:38:41;;;;;;;5.10;2.80;;;25.20;63.60;;;;;;4879854;29;20100;-73
2022/07/21 08:41:08;;;;;;;5.00;3.00;;;25.20;63.20;;;;;;4886439;29;20385;-72
2022/07/21 08:43:36;;;;;;;5.40;3.22;;;25.10;62.70;;;;;;4881310;29;20052;-76
2022/07/21 08:46:04;;;;;;;6.43;3.13;;;25.20;62.60;;;;;;4883351;29;20080;-78
2022/07/21 08:48:33;;;;;;;6.65;2.97;;;25.30;62.90;;;;;;4893152;29;20052;-77
2022/07/21 08:51:00;;;;;;;5.95;3.75;;;25.40;62.60;;;;;;4882437;29;20134;-76
2022/07/21 08:53:28;;;;;;;5.95;3.50;;;25.50;62.80;;;;;;4878572;29;20497;-77
2022/07/21 08:55:55;;;;;;;8.02;3.35;;;25.80;62.60;;;;;;4887109;29;20491;-76
2022/07/21 08:58:22;;;;;;;6.82;3.83;;;26.00;62.30;;;;;;4888539;29;20072;-73
2022/07/21 09:00:50;;;;;;;5.72;2.90;;;26.20;61.90;;;;;;4876078;29;20040;-77
2022/07/21 09:03:21;;;;;;;8.02;4.20;;;26.10;61.20;;;;;;4880528;29;20045;-75
2022/07/21 09:06:06;;;;;;;6.30;3.45;;;26.20;60.80;;;;;;4886346;29;20060;-73
2022/07/21 09:08:37;;;;;;;5.55;2.90;;;26.10;60.80;;;;;;4881273;29;20142;-76
2022/07/21 09:11:21;;;;;;;5.65;3.30;;;26.10;60.60;;;;;;4884837;29;20045;-76
2022/07/21 09:13:51;;;;;;;5.30;3.15;;;25.90;60.00;;;;;;4871725;29;20152;-77
2022/07/21 09:16:35;;;;;;;5.65;3.15;;;25.80;60.50;;;;;;4877725;29;20140;-73
2022/07/21 09:19:04;;;;;;;5.18;3.05;;;25.90;60.40;;;;;;4892000;29;20052;-74
2022/07/21 09:21:32;;;;;;;4.95;2.92;;;25.90;60.60;;;;;;4877359;29;20487;-73
2022/07/21 09:24:20;;;;;;;5.28;2.85;;;26.00;60.20;;;;;;4886200;29;20056;-74
2022/07/21 09:27:06;;;;;;;5.97;3.30;;;26.20;60.10;;;;;;4890668;29;20159;-75
2022/07/21 09:29:40;;;;;;;8.77;4.00;;;26.30;59.80;;;;;;4878550;29;20052;-75
2022/07/21 09:32:16;;;;;;;5.70;3.28;;;26.40;59.10;;;;;;4886774;29;20059;-76
2022/07/21 09:34:44;;;;;;;7.13;3.60;;;26.60;58.80;;;;;;4886633;29;20080;-75
2022/07/21 09:37:11;;;;;;;7.07;3.80;;;26.70;58.50;;;;;;4886872;29;20049;-75
2022/07/21 09:39:43;;;;;;;7.80;2.63;;;26.90;57.70;;;;;;4884715;29;20056;-79
2022/07/21 09:42:18;;;;;;;6.25;3.03;;;27.00;57.60;;;;;;4887053;29;20147;-76
2022/07/21 09:44:47;;;;;;;4.70;3.10;;;27.00;57.80;;;;;;4878987;29;20057;-76
2022/07/21 09:47:18;;;;;;;4.78;2.85;;;27.10;57.00;;;;;;4874464;29;20074;-75
2022/07/21 09:49:46;;;;;;;6.43;3.25;;;27.10;57.50;;;;;;4881176;29;20048;-75
2022/07/21 09:52:24;;;;;;;4.85;3.05;;;27.10;56.70;;;;;;4886742;29;20044;-75
2022/07/21 09:54:53;;;;;;;5.75;3.33;;;27.10;56.50;;;;;;4891386;29;20531;-74
2022/07/21 09:57:21;;;;;;;6.00;2.70;;;27.00;56.30;;;;;;4879808;29;20171;-76
2022/07/21 09:59:49;;;;;;;4.65;2.72;;;26.80;56.00;;;;;;4879985;29;20177;-71
2022/07/21 10:02:19;;;;;;;3.80;2.60;;;26.70;56.10;;;;;;4884795;29;20049;-73
2022/07/21 10:05:00;;;;;;;4.90;2.38;;;26.50;56.40;;;;;;4870398;29;20538;-74
2022/07/21 10:07:28;;;;;;;6.20;3.17;;;26.50;56.60;;;;;;4883413;29;20061;-74
2022/07/21 10:09:56;;;;;;;6.35;3.10;;;26.40;57.00;;;;;;4868041;29;20049;-76
2022/07/21 10:12:25;;;;;;;4.75;2.97;;;26.30;57.10;;;;;;4891057;29;20044;-74
2022/07/21 10:14:52;;;;;;;4.43;2.40;;;26.30;57.30;;;;;;4879439;29;20684;-74
2022/07/21 10:17:20;;;;;;;5.28;2.70;;;26.30;57.20;;;;;;4881333;29;20395;-74
2022/07/21 10:20:01;;;;;;;4.27;2.83;;;26.20;57.30;;;;;;4876263;29;21885;-75
2022/07/21 10:22:44;;;;;;;4.22;2.40;;;26.30;57.10;;;;;;4885167;29;20060;-73
2022/07/21 10:25:12;;;;;;;4.10;2.10;;;26.40;57.10;;;;;;4876353;29;20210;-76
2022/07/21 10:27:38;;;;;;;4.47;2.33;;;26.40;56.80;;;;;;4890323;29;20414;-75
2022/07/21 10:30:07;;;;;;;5.95;2.75;;;26.40;56.70;;;;;;4881051;29;20044;-77
2022/07/21 10:32:36;;;;;;;4.15;2.55;;;26.40;56.80;;;;;;4881969;29;20060;-75
2022/07/21 10:35:28;;;;;;;4.10;2.70;;;26.30;56.70;;;;;;4886784;29;20048;-75
2022/07/21 10:37:55;;;;;;;3.78;2.33;;;26.30;56.30;;;;;;4870762;29;20072;-75
2022/07/21 10:40:39;;;;;;;2.80;2.10;;;26.30;55.90;;;;;;4881165;29;20260;-74
2022/07/21 10:43:44;;;;;;;3.60;2.28;;;26.40;55.90;;;;;;4878425;29;20175;-75
2022/07/21 10:46:40;;;;;;;5.30;2.47;;;26.50;55.80;;;;;;4842762;29;20054;-74
2022/07/21 10:49:10;;;;;;;3.78;2.40;;;26.60;55.80;;;;;;4848472;29;20423;-73
2022/07/21 10:51:39;;;;;;;;;;;26.80;55.40;;;;;;4848619;29;20046;-74
2022/07/21 10:54:19;;;;;;;;;;;26.90;54.80;;;;;;4850196;29;19929;-75
2022/07/21 10:56:46;;;;;;;4.63;2.30;;;27.10;54.80;;;;;;4851053;29;19944;-75
2022/07/21 10:59:13;;;;;;;5.00;2.45;;;27.30;54.20;;;;;;4843372;29;20049;-76
2022/07/21 11:01:40;;;;;;;2.90;1.90;;;27.40;54.20;;;;;;4846874;29;20049;-72
2022/07/21 11:04:08;;;;;;;6.18;2.13;;;27.60;53.20;;;;;;4861922;29;20049;-73
2022/07/21 11:06:39;;;;;;;3.33;1.80;;;27.60;52.90;;;;;;4862773;29;20101;-74
2022/07/21 11:09:14;;;;;;;3.13;1.90;;;27.70;52.60;;;;;;4853865;29;20064;-75
2022/07/21 11:11:58;;;;;;;4.10;2.20;;;27.90;52.20;;;;;;4856257;29;20136;-74
2022/07/21 11:14:36;;;;;;;4.85;2.40;;;28.00;52.00;;;;;;4848297;29;20129;-73
2022/07/21 11:17:04;;;;;;;4.30;2.10;;;28.10;51.40;;;;;;4851690;29;20053;-73
2022/07/21 11:19:33;;;;;;;3.38;1.98;;;28.20;50.90;;;;;;4853911;29;20049;-71
2022/07/21 11:22:05;;;;;;;3.90;2.20;;;28.20;50.90;;;;;;4849087;29;20046;-73
2022/07/21 11:24:33;;;;;;;4.45;1.75;;;28.10;50.50;;;;;;4850127;29;20061;-72
2022/07/21 11:27:02;;;;;;;3.83;1.90;;;28.00;50.40;;;;;;4846805;29;20121;-73
2022/07/21 11:29:30;;;;;;;3.35;1.88;;;28.10;50.40;;;;;;4846667;29;20048;-73
2022/07/21 11:31:58;;;;;;;4.50;2.20;;;28.20;49.90;;;;;;4842895;29;20178;-75
2022/07/21 11:34:26;;;;;;;3.05;1.92;;;28.30;50.40;;;;;;4845954;29;20068;-72
2022/07/21 11:37:00;;;;;;;3.40;1.85;;;28.50;50.30;;;;;;4846473;29;20064;-71
2022/07/21 11:39:28;;;;;;;5.05;2.22;;;28.50;49.90;;;;;;4852048;29;20476;-70
2022/07/21 11:41:56;;;;;;;4.72;2.42;;;28.50;50.20;;;;;;4855625;29;20057;-72
2022/07/21 11:44:25;;;;;;;3.75;2.08;;;28.60;50.10;;;;;;4868443;29;20092;-73
2022/07/21 11:46:53;;;;;;;3.15;1.80;;;28.60;50.00;;;;;;4891878;29;20056;-71
2022/07/21 11:49:20;;;;;;;3.22;1.80;;;28.60;49.60;;;;;;4886766;29;20052;-70
2022/07/21 11:51:54;;;;;;;4.47;2.45;;;28.60;49.80;;;;;;4884351;29;20075;-73
2022/07/21 11:54:29;;;;;;;4.70;2.20;;;28.60;49.80;;;;;;4884686;29;20053;-73
2022/07/21 11:56:58;;;;;;;4.82;2.40;;;28.60;49.70;;;;;;4881905;29;20512;-73
2022/07/21 11:59:25;;;;;;;5.25;2.40;;;28.60;49.70;;;;;;4885043;29;20041;-73
2022/07/21 12:01:58;;;;;;;4.35;1.92;;;28.80;49.40;;;;;;4882777;29;20052;-73
2022/07/21 12:04:38;;;;;;;3.72;2.28;;;28.70;49.60;;;;;;4889611;29;20510;-74
2022/07/21 12:07:08;;;;;;;4.00;2.28;;;28.80;49.40;;;;;;4891997;29;20072;-74
2022/07/21 12:09:37;;;;;;;3.15;2.10;;;28.80;49.20;;;;;;4883021;29;20085;-72
2022/07/21 12:12:05;;;;;;;3.90;2.22;;;28.80;49.00;;;;;;4885703;29;20471;-72
2022/07/21 12:14:44;;;;;;;4.20;2.38;;;28.80;48.80;;;;;;4887060;29;20079;-73
2022/07/21 12:17:11;;;;;;;3.22;1.88;;;28.70;48.80;;;;;;4888378;29;20048;-74
2022/07/21 12:19:38;;;;;;;4.72;2.10;;;28.60;48.20;;;;;;4890388;29;20052;-73
2022/07/21 12:22:06;;;;;;;3.40;1.73;;;28.40;48.40;;;;;;4893825;29;20095;-74
2022/07/21 12:24:52;;;;;;;4.22;2.28;;;28.20;48.10;;;;;;4892928;29;20052;-74
2022/07/21 12:27:19;;;;;;;3.45;2.08;;;28.10;48.50;;;;;;4888538;29;20049;-73
2022/07/21 12:29:46;;;;;;;3.78;2.25;;;27.90;48.80;;;;;;4896724;29;20131;-75
2022/07/21 12:32:14;;;;;;;6.30;2.35;;;27.80;49.10;;;;;;4891990;29;20070;-73
2022/07/21 12:34:51;;;;;;;5.15;2.25;;;27.70;49.30;;;;;;4892232;29;20060;-73
2022/07/21 12:37:18;;;;;;;2.72;1.98;;;27.70;49.50;;;;;;4888820;29;20136;-73
2022/07/21 12:40:03;;;;;;;4.32;2.30;;;27.70;49.40;;;;;;4895497;29;20395;-73
2022/07/21 12:42:32;;;;;;;4.57;2.15;;;27.70;49.50;;;;;;4888855;29;20056;-72
2022/07/21 12:44:59;;;;;;;;;;;27.60;49.70;;;;;;4891408;29;20497;-74
2022/07/21 12:47:26;;;;;;;5.10;2.90;;;27.60;49.70;;;;;;4893188;29;20882;-74
2022/07/21 12:50:01;;;;;;;5.10;3.30;;;27.60;49.80;;;;;;4888706;29;20606;-72
2022/07/21 12:52:30;;;;;;;5.85;3.00;;;27.40;50.20;;;;;;4894862;29;20045;-71
2022/07/21 12:54:58;;;;;;;5.80;3.05;;;27.30;50.60;;;;;;4890841;29;20053;-72
2022/07/21 12:57:28;;;;;;;4.88;2.75;;;27.30;50.90;;;;;;4896978;29;20052;-72